sensor_id;sensor_type;location;lat;lon;timestamp;pressure;altitude;pressure_sealevel;temperature;humidity
75668;BME280;64266;48.798;44.756;2023-07-31T00:02:51;100844.97;;;23.46;52.94
75668;BME280;64266;48.798;44.756;2023-07-31T00:07:59;100817.66;;;23.15;52.80
75668;BME280;64266;48.798;44.756;2023-07-31T00:13:03;100811.44;;;23.15;52.27
75668;BME280;64266;48.798;44.756;2023-07-31T00:18:06;100851.53;;;23.27;52.26
75668;BME280;64266;48.798;44.756;2023-07-31T00:23:12;100822.66;;;23.08;51.92
75668;BME280;64266;48.798;44.756;2023-07-31T00:28:21;100879.38;;;23.46;51.53
75668;BME280;64266;48.798;44.756;2023-07-31T00:33:36;100853.75;;;23.25;52.71
75668;BME280;64266;48.798;44.756;2023-07-31T00:38:54;100799.88;;;22.82;52.78
75668;BME280;64266;48.798;44.756;2023-07-31T00:43:59;100807.41;;;22.85;51.14
75668;BME280;64266;48.798;44.756;2023-07-31T00:49:05;100773.13;;;22.67;51.58
75668;BME280;64266;48.798;44.756;2023-07-31T00:54:09;100789.94;;;22.78;51.80
75668;BME280;64266;48.798;44.756;2023-07-31T00:59:15;100890.06;;;23.37;51.21
75668;BME280;64266;48.798;44.756;2023-07-31T01:04:22;100773.69;;;22.64;50.73
75668;BME280;64266;48.798;44.756;2023-07-31T01:15:06;100846.09;;;22.99;49.46
75668;BME280;64266;48.798;44.756;2023-07-31T01:20:24;100828.50;;;22.83;50.62
75668;BME280;64266;48.798;44.756;2023-07-31T01:31:02;100849.59;;;22.67;51.61
75668;BME280;64266;48.798;44.756;2023-07-31T01:36:11;100834.50;;;22.48;51.42
75668;BME280;64266;48.798;44.756;2023-07-31T01:41:18;100850.94;;;22.51;51.80
75668;BME280;64266;48.798;44.756;2023-07-31T01:46:25;100808.56;;;22.28;52.33
75668;BME280;64266;48.798;44.756;2023-07-31T01:51:31;100856.25;;;22.56;52.81
75668;BME280;64266;48.798;44.756;2023-07-31T01:56:37;100860.19;;;22.64;52.66
75668;BME280;64266;48.798;44.756;2023-07-31T02:01:43;100818.28;;;22.48;52.02
75668;BME280;64266;48.798;44.756;2023-07-31T02:06:50;100870.97;;;22.83;51.86
75668;BME280;64266;48.798;44.756;2023-07-31T02:11:56;100942.97;;;23.30;52.57
75668;BME280;64266;48.798;44.756;2023-07-31T02:17:50;100836.94;;;22.63;52.90
75668;BME280;64266;48.798;44.756;2023-07-31T02:23:29;100900.63;;;23.06;52.66
75668;BME280;64266;48.798;44.756;2023-07-31T02:28:44;100889.16;;;22.96;52.26
75668;BME280;64266;48.798;44.756;2023-07-31T02:33:57;100909.13;;;23.00;53.01
75668;BME280;64266;48.798;44.756;2023-07-31T02:39:05;100940.28;;;23.11;53.65
75668;BME280;64266;48.798;44.756;2023-07-31T02:44:12;100896.22;;;22.78;53.93
75668;BME280;64266;48.798;44.756;2023-07-31T02:49:18;100924.84;;;22.98;53.40
75668;BME280;64266;48.798;44.756;2023-07-31T02:54:21;100875.31;;;22.65;53.88
75668;BME280;64266;48.798;44.756;2023-07-31T02:59:25;100881.06;;;22.77;53.78
75668;BME280;64266;48.798;44.756;2023-07-31T03:04:28;100886.00;;;22.89;51.81
75668;BME280;64266;48.798;44.756;2023-07-31T03:09:32;100880.97;;;23.01;51.76
75668;BME280;64266;48.798;44.756;2023-07-31T03:19:38;100885.72;;;24.32;49.00
75668;BME280;64266;48.798;44.756;2023-07-31T03:24:42;100887.56;;;25.33;46.01
75668;BME280;64266;48.798;44.756;2023-07-31T03:29:48;100906.28;;;26.31;43.53
75668;BME280;64266;48.798;44.756;2023-07-31T03:34:54;100827.09;;;26.67;42.66
75668;BME280;64266;48.798;44.756;2023-07-31T03:40:00;100920.84;;;27.96;40.95
75668;BME280;64266;48.798;44.756;2023-07-31T03:45:06;100877.06;;;28.43;39.43
75668;BME280;64266;48.798;44.756;2023-07-31T03:50:10;100874.47;;;28.88;38.27
75668;BME280;64266;48.798;44.756;2023-07-31T03:55:13;100924.88;;;29.35;38.69
75668;BME280;64266;48.798;44.756;2023-07-31T04:00:17;100922.91;;;29.81;38.34
75668;BME280;64266;48.798;44.756;2023-07-31T04:05:20;100921.13;;;30.37;37.02
75668;BME280;64266;48.798;44.756;2023-07-31T04:10:23;100915.59;;;30.89;36.04
75668;BME280;64266;48.798;44.756;2023-07-31T04:15:27;100916.72;;;31.00;35.17
75668;BME280;64266;48.798;44.756;2023-07-31T04:20:30;100913.19;;;31.15;35.51
75668;BME280;64266;48.798;44.756;2023-07-31T04:25:34;100928.72;;;31.70;35.18
75668;BME280;64266;48.798;44.756;2023-07-31T04:30:37;100877.84;;;31.57;34.32
75668;BME280;64266;48.798;44.756;2023-07-31T04:35:41;100925.72;;;32.26;34.45
75668;BME280;64266;48.798;44.756;2023-07-31T04:40:44;100899.72;;;32.39;33.23
75668;BME280;64266;48.798;44.756;2023-07-31T04:45:51;100947.50;;;32.92;33.41
75668;BME280;64266;48.798;44.756;2023-07-31T04:50:56;100944.16;;;33.02;33.45
75668;BME280;64266;48.798;44.756;2023-07-31T04:56:00;100921.47;;;33.47;32.59
75668;BME280;64266;48.798;44.756;2023-07-31T05:01:03;100913.31;;;33.76;32.46
75668;BME280;64266;48.798;44.756;2023-07-31T05:06:06;100943.41;;;34.45;31.68
75668;BME280;64266;48.798;44.756;2023-07-31T05:11:09;100937.06;;;34.41;31.57
75668;BME280;64266;48.798;44.756;2023-07-31T05:16:12;100938.75;;;33.70;33.00
75668;BME280;64266;48.798;44.756;2023-07-31T05:21:16;100945.19;;;32.55;35.14
75668;BME280;64266;48.798;44.756;2023-07-31T05:26:20;100937.38;;;31.56;36.71
75668;BME280;64266;48.798;44.756;2023-07-31T05:31:23;100930.22;;;31.67;37.23
75668;BME280;64266;48.798;44.756;2023-07-31T05:36:26;100950.75;;;31.74;36.20
75668;BME280;64266;48.798;44.756;2023-07-31T05:41:30;100946.34;;;32.54;34.24
75668;BME280;64266;48.798;44.756;2023-07-31T05:46:34;100946.75;;;33.56;33.00
75668;BME280;64266;48.798;44.756;2023-07-31T05:51:37;100937.22;;;33.72;32.49
75668;BME280;64266;48.798;44.756;2023-07-31T05:56:40;100938.75;;;34.52;31.36
75668;BME280;64266;48.798;44.756;2023-07-31T06:01:43;100935.97;;;34.78;29.72
75668;BME280;64266;48.798;44.756;2023-07-31T06:06:46;100952.78;;;35.03;28.91
75668;BME280;64266;48.798;44.756;2023-07-31T06:11:50;100954.69;;;35.32;28.32
75668;BME280;64266;48.798;44.756;2023-07-31T06:16:52;100941.00;;;35.94;27.21
75668;BME280;64266;48.798;44.756;2023-07-31T06:21:56;100933.75;;;36.33;26.63
75668;BME280;64266;48.798;44.756;2023-07-31T06:26:59;100931.84;;;36.45;25.19
75668;BME280;64266;48.798;44.756;2023-07-31T06:32:02;100927.22;;;36.73;25.28
75668;BME280;64266;48.798;44.756;2023-07-31T06:37:06;100925.81;;;37.43;24.74
75668;BME280;64266;48.798;44.756;2023-07-31T06:42:09;100933.75;;;37.59;24.28
75668;BME280;64266;48.798;44.756;2023-07-31T06:47:12;100923.47;;;37.59;23.39
75668;BME280;64266;48.798;44.756;2023-07-31T06:52:15;100926.56;;;37.12;24.11
75668;BME280;64266;48.798;44.756;2023-07-31T06:57:17;100920.41;;;36.50;25.16
75668;BME280;64266;48.798;44.756;2023-07-31T07:02:20;100938.72;;;36.89;25.60
75668;BME280;64266;48.798;44.756;2023-07-31T07:07:23;100931.34;;;37.39;24.23
75668;BME280;64266;48.798;44.756;2023-07-31T07:12:29;100938.88;;;37.67;23.96
75668;BME280;64266;48.798;44.756;2023-07-31T07:17:33;100936.47;;;37.83;23.49
75668;BME280;64266;48.798;44.756;2023-07-31T07:22:36;100927.38;;;37.83;22.88
75668;BME280;64266;48.798;44.756;2023-07-31T07:27:38;100927.00;;;37.91;22.67
75668;BME280;64266;48.798;44.756;2023-07-31T07:32:41;100923.41;;;37.94;22.78
75668;BME280;64266;48.798;44.756;2023-07-31T07:37:43;100917.13;;;37.62;22.74
75668;BME280;64266;48.798;44.756;2023-07-31T07:42:55;100923.41;;;37.41;22.53
75668;BME280;64266;48.798;44.756;2023-07-31T07:47:58;100927.00;;;37.31;23.43
75668;BME280;64266;48.798;44.756;2023-07-31T07:53:04;100922.22;;;37.14;22.67
75668;BME280;64266;48.798;44.756;2023-07-31T07:58:08;100918.19;;;36.87;22.48
75668;BME280;64266;48.798;44.756;2023-07-31T08:03:16;100907.03;;;36.52;23.14
75668;BME280;64266;48.798;44.756;2023-07-31T08:08:20;100893.66;;;35.88;23.93
75668;BME280;64266;48.798;44.756;2023-07-31T08:13:29;100900.28;;;35.29;24.98
75668;BME280;64266;48.798;44.756;2023-07-31T08:18:34;100896.19;;;35.13;25.42
75668;BME280;64266;48.798;44.756;2023-07-31T08:23:47;100910.16;;;34.94;25.70
75668;BME280;64266;48.798;44.756;2023-07-31T08:28:55;100898.63;;;34.51;26.25
75668;BME280;64266;48.798;44.756;2023-07-31T08:34:01;100908.84;;;33.95;28.04
75668;BME280;64266;48.798;44.756;2023-07-31T08:39:23;100883.63;;;33.40;27.85
75668;BME280;64266;48.798;44.756;2023-07-31T08:44:31;100872.19;;;33.38;26.85
75668;BME280;64266;48.798;44.756;2023-07-31T08:49:52;100872.22;;;33.15;26.95
75668;BME280;64266;48.798;44.756;2023-07-31T08:54:57;100894.38;;;33.26;26.96
75668;BME280;64266;48.798;44.756;2023-07-31T09:00:04;100870.69;;;33.41;27.10
75668;BME280;64266;48.798;44.756;2023-07-31T09:05:30;100879.25;;;33.13;27.77
75668;BME280;64266;48.798;44.756;2023-07-31T09:10:34;100868.09;;;33.06;27.72
75668;BME280;64266;48.798;44.756;2023-07-31T09:15:51;100867.50;;;33.16;27.69
75668;BME280;64266;48.798;44.756;2023-07-31T09:21:03;100864.47;;;33.02;25.16
75668;BME280;64266;48.798;44.756;2023-07-31T09:26:07;100865.50;;;32.94;26.61
75668;BME280;64266;48.798;44.756;2023-07-31T09:31:10;100865.28;;;33.02;27.91
75668;BME280;64266;48.798;44.756;2023-07-31T09:36:13;100857.19;;;33.09;28.01
75668;BME280;64266;48.798;44.756;2023-07-31T09:41:24;100866.34;;;33.17;28.56
75668;BME280;64266;48.798;44.756;2023-07-31T09:46:27;100871.88;;;32.98;28.19
75668;BME280;64266;48.798;44.756;2023-07-31T09:51:31;100871.00;;;32.94;28.63
75668;BME280;64266;48.798;44.756;2023-07-31T09:56:36;100871.59;;;32.84;28.43
75668;BME280;64266;48.798;44.756;2023-07-31T10:02:07;100864.63;;;32.67;28.55
75668;BME280;64266;48.798;44.756;2023-07-31T10:07:17;100859.91;;;32.48;29.04
75668;BME280;64266;48.798;44.756;2023-07-31T10:12:22;100855.91;;;32.46;28.44
75668;BME280;64266;48.798;44.756;2023-07-31T10:17:29;100869.31;;;32.66;29.01
75668;BME280;64266;48.798;44.756;2023-07-31T10:22:41;100851.25;;;32.65;28.35
75668;BME280;64266;48.798;44.756;2023-07-31T10:27:54;100847.69;;;32.65;28.17
75668;BME280;64266;48.798;44.756;2023-07-31T10:32:58;100844.22;;;32.68;28.56
75668;BME280;64266;48.798;44.756;2023-07-31T10:38:12;100803.88;;;32.30;27.79
75668;BME280;64266;48.798;44.756;2023-07-31T10:43:27;100841.69;;;32.40;28.51
75668;BME280;64266;48.798;44.756;2023-07-31T10:48:33;100858.25;;;32.25;29.43
75668;BME280;64266;48.798;44.756;2023-07-31T10:53:47;100845.75;;;32.08;27.87
75668;BME280;64266;48.798;44.756;2023-07-31T10:59:00;100857.31;;;32.17;29.21
75668;BME280;64266;48.798;44.756;2023-07-31T11:04:10;100825.81;;;32.11;29.07
75668;BME280;64266;48.798;44.756;2023-07-31T11:09:29;100817.97;;;31.94;28.81
75668;BME280;64266;48.798;44.756;2023-07-31T11:15:02;100841.31;;;32.03;28.12
75668;BME280;64266;48.798;44.756;2023-07-31T11:20:20;100806.69;;;31.80;28.57
75668;BME280;64266;48.798;44.756;2023-07-31T11:25:24;100833.19;;;32.07;28.30
75668;BME280;64266;48.798;44.756;2023-07-31T11:30:31;100820.41;;;32.14;28.53
75668;BME280;64266;48.798;44.756;2023-07-31T11:35:35;100831.00;;;32.16;27.95
75668;BME280;64266;48.798;44.756;2023-07-31T11:41:04;100804.03;;;31.83;28.09
75668;BME280;64266;48.798;44.756;2023-07-31T11:46:13;100816.53;;;32.00;27.88
75668;BME280;64266;48.798;44.756;2023-07-31T11:51:29;100754.13;;;31.58;27.21
75668;BME280;64266;48.798;44.756;2023-07-31T11:56:35;100793.56;;;31.89;27.92
75668;BME280;64266;48.798;44.756;2023-07-31T12:01:42;100812.03;;;32.07;27.90
75668;BME280;64266;48.798;44.756;2023-07-31T12:06:48;100795.63;;;32.11;27.64
75668;BME280;64266;48.798;44.756;2023-07-31T12:11:53;100791.38;;;32.13;27.51
75668;BME280;64266;48.798;44.756;2023-07-31T12:17:03;100809.41;;;32.34;27.08
75668;BME280;64266;48.798;44.756;2023-07-31T12:22:14;100790.97;;;32.34;27.37
75668;BME280;64266;48.798;44.756;2023-07-31T12:33:14;100779.09;;;32.49;26.70
75668;BME280;64266;48.798;44.756;2023-07-31T12:38:24;100778.28;;;32.45;26.33
75668;BME280;64266;48.798;44.756;2023-07-31T12:43:38;100799.13;;;32.50;26.66
75668;BME280;64266;48.798;44.756;2023-07-31T12:48:50;100789.91;;;32.19;26.74
75668;BME280;64266;48.798;44.756;2023-07-31T12:55:01;100777.94;;;32.08;27.53
75668;BME280;64266;48.798;44.756;2023-07-31T13:00:05;100783.47;;;32.12;27.85
75668;BME280;64266;48.798;44.756;2023-07-31T13:05:08;100791.59;;;32.05;27.56
75668;BME280;64266;48.798;44.756;2023-07-31T13:10:11;100790.25;;;31.99;27.65
75668;BME280;64266;48.798;44.756;2023-07-31T13:15:14;100784.75;;;31.80;27.26
75668;BME280;64266;48.798;44.756;2023-07-31T13:20:19;100762.34;;;31.58;27.78
75668;BME280;64266;48.798;44.756;2023-07-31T13:25:23;100753.25;;;31.54;27.30
75668;BME280;64266;48.798;44.756;2023-07-31T13:30:27;100776.16;;;31.62;26.96
75668;BME280;64266;48.798;44.756;2023-07-31T13:35:30;100762.06;;;31.48;27.50
75668;BME280;64266;48.798;44.756;2023-07-31T13:40:33;100764.59;;;31.53;27.69
75668;BME280;64266;48.798;44.756;2023-07-31T13:45:36;100767.66;;;31.51;27.21
75668;BME280;64266;48.798;44.756;2023-07-31T13:50:40;100760.41;;;31.43;28.15
75668;BME280;64266;48.798;44.756;2023-07-31T13:55:45;100761.13;;;31.40;27.63
75668;BME280;64266;48.798;44.756;2023-07-31T14:00:53;100743.19;;;31.27;27.35
75668;BME280;64266;48.798;44.756;2023-07-31T14:05:59;100741.09;;;31.21;28.17
75668;BME280;64266;48.798;44.756;2023-07-31T14:11:12;100747.88;;;31.27;27.89
75668;BME280;64266;48.798;44.756;2023-07-31T14:16:32;100752.84;;;31.21;28.39
75668;BME280;64266;48.798;44.756;2023-07-31T14:21:36;100758.25;;;31.17;28.74
75668;BME280;64266;48.798;44.756;2023-07-31T14:26:38;100769.72;;;31.07;28.23
75668;BME280;64266;48.798;44.756;2023-07-31T14:31:41;100756.81;;;30.92;28.15
75668;BME280;64266;48.798;44.756;2023-07-31T14:36:44;100738.53;;;30.81;27.06
75668;BME280;64266;48.798;44.756;2023-07-31T14:41:47;100756.00;;;30.92;28.03
75668;BME280;64266;48.798;44.756;2023-07-31T14:46:50;100754.88;;;30.77;28.57
75668;BME280;64266;48.798;44.756;2023-07-31T14:51:54;100752.22;;;30.65;28.55
75668;BME280;64266;48.798;44.756;2023-07-31T14:56:57;100763.97;;;30.66;29.13
75668;BME280;64266;48.798;44.756;2023-07-31T15:02:00;100738.50;;;30.49;29.04
75668;BME280;64266;48.798;44.756;2023-07-31T15:07:04;100737.63;;;30.45;29.78
75668;BME280;64266;48.798;44.756;2023-07-31T15:12:07;100761.56;;;30.48;29.50
75668;BME280;64266;48.798;44.756;2023-07-31T15:17:11;100760.56;;;30.41;30.06
75668;BME280;64266;48.798;44.756;2023-07-31T15:22:14;100759.31;;;30.38;29.81
75668;BME280;64266;48.798;44.756;2023-07-31T15:27:17;100750.69;;;30.24;29.70
75668;BME280;64266;48.798;44.756;2023-07-31T15:32:21;100767.22;;;30.28;31.03
75668;BME280;64266;48.798;44.756;2023-07-31T15:37:25;100755.34;;;30.08;30.94
75668;BME280;64266;48.798;44.756;2023-07-31T15:42:31;100756.63;;;29.98;31.04
75668;BME280;64266;48.798;44.756;2023-07-31T15:47:36;100740.59;;;29.73;31.56
75668;BME280;64266;48.798;44.756;2023-07-31T15:52:41;100759.41;;;29.74;32.20
75668;BME280;64266;48.798;44.756;2023-07-31T15:57:50;100753.88;;;29.58;31.96
75668;BME280;64266;48.798;44.756;2023-07-31T16:02:54;100774.81;;;29.54;33.00
75668;BME280;64266;48.798;44.756;2023-07-31T16:07:57;100771.66;;;29.28;33.73
75668;BME280;64266;48.798;44.756;2023-07-31T16:13:00;100782.88;;;29.15;34.18
75668;BME280;64266;48.798;44.756;2023-07-31T16:18:03;100788.59;;;28.97;35.48
75668;BME280;64266;48.798;44.756;2023-07-31T16:23:06;100757.75;;;28.64;36.26
75668;BME280;64266;48.798;44.756;2023-07-31T16:28:09;100788.81;;;28.60;37.13
75668;BME280;64266;48.798;44.756;2023-07-31T16:33:11;100794.91;;;28.44;37.61
75668;BME280;64266;48.798;44.756;2023-07-31T16:38:15;100777.63;;;28.20;37.77
75668;BME280;64266;48.798;44.756;2023-07-31T16:43:17;100786.94;;;27.98;38.06
75668;BME280;64266;48.798;44.756;2023-07-31T16:48:21;100809.56;;;27.98;38.95
75668;BME280;64266;48.798;44.756;2023-07-31T16:53:23;100793.72;;;27.71;39.44
75668;BME280;64266;48.798;44.756;2023-07-31T16:58:26;100822.09;;;27.70;40.82
75668;BME280;64266;48.798;44.756;2023-07-31T17:03:29;100822.66;;;27.55;41.71
75668;BME280;64266;48.798;44.756;2023-07-31T17:08:31;100825.56;;;27.41;40.86
75668;BME280;64266;48.798;44.756;2023-07-31T17:13:34;100826.47;;;27.25;41.68
75668;BME280;64266;48.798;44.756;2023-07-31T17:18:37;100847.94;;;27.18;42.43
75668;BME280;64266;48.798;44.756;2023-07-31T17:23:40;100828.19;;;26.91;42.49
75668;BME280;64266;48.798;44.756;2023-07-31T17:28:43;100864.19;;;26.97;42.59
75668;BME280;64266;48.798;44.756;2023-07-31T17:33:46;100836.69;;;26.73;43.81
75668;BME280;64266;48.798;44.756;2023-07-31T17:38:49;100857.81;;;26.76;44.38
75668;BME280;64266;48.798;44.756;2023-07-31T17:43:51;100848.22;;;26.53;44.74
75668;BME280;64266;48.798;44.756;2023-07-31T17:48:54;100867.91;;;26.50;44.63
75668;BME280;64266;48.798;44.756;2023-07-31T17:53:56;100877.03;;;26.45;44.72
75668;BME280;64266;48.798;44.756;2023-07-31T17:58:59;100863.13;;;26.21;45.72
75668;BME280;64266;48.798;44.756;2023-07-31T18:04:02;100895.75;;;26.29;44.47
75668;BME280;64266;48.798;44.756;2023-07-31T18:09:06;100888.53;;;26.25;44.67
75668;BME280;64266;48.798;44.756;2023-07-31T18:14:27;100901.00;;;26.26;44.76
75668;BME280;64266;48.798;44.756;2023-07-31T18:19:30;100899.41;;;26.16;45.93
75668;BME280;64266;48.798;44.756;2023-07-31T18:24:32;100904.16;;;26.11;45.98
75668;BME280;64266;48.798;44.756;2023-07-31T18:29:35;100898.84;;;25.97;45.45
75668;BME280;64266;48.798;44.756;2023-07-31T18:34:38;100887.97;;;25.88;45.51
75668;BME280;64266;48.798;44.756;2023-07-31T18:39:40;100922.84;;;26.04;44.97
75668;BME280;64266;48.798;44.756;2023-07-31T18:44:43;100907.16;;;25.92;45.05
75668;BME280;64266;48.798;44.756;2023-07-31T18:49:45;100932.91;;;26.03;45.15
75668;BME280;64266;48.798;44.756;2023-07-31T18:54:48;100922.69;;;26.00;45.85
75668;BME280;64266;48.798;44.756;2023-07-31T18:59:51;100932.91;;;26.03;46.05
75668;BME280;64266;48.798;44.756;2023-07-31T19:04:53;100910.03;;;25.87;46.52
75668;BME280;64266;48.798;44.756;2023-07-31T19:09:55;100935.97;;;26.02;46.62
75668;BME280;64266;48.798;44.756;2023-07-31T19:15:16;100925.72;;;25.90;47.18
75668;BME280;64266;48.798;44.756;2023-07-31T19:20:18;100925.53;;;25.86;47.59
75668;BME280;64266;48.798;44.756;2023-07-31T19:25:21;100926.09;;;25.75;47.65
75668;BME280;64266;48.798;44.756;2023-07-31T19:30:25;100914.28;;;25.71;48.12
75668;BME280;64266;48.798;44.756;2023-07-31T19:35:28;100941.31;;;25.76;48.17
75668;BME280;64266;48.798;44.756;2023-07-31T19:40:30;100939.66;;;25.66;48.17
75668;BME280;64266;48.798;44.756;2023-07-31T19:45:33;100956.78;;;25.67;48.55
75668;BME280;64266;48.798;44.756;2023-07-31T19:50:36;100938.97;;;25.52;49.26
75668;BME280;64266;48.798;44.756;2023-07-31T19:55:39;100952.22;;;25.54;49.81
75668;BME280;64266;48.798;44.756;2023-07-31T20:00:41;100934.59;;;25.43;48.40
75668;BME280;64266;48.798;44.756;2023-07-31T20:05:44;100938.84;;;25.35;46.79
75668;BME280;64266;48.798;44.756;2023-07-31T20:10:50;100941.41;;;25.31;45.65
75668;BME280;64266;48.798;44.756;2023-07-31T20:15:53;100950.22;;;25.37;43.83
75668;BME280;64266;48.798;44.756;2023-07-31T20:20:56;100937.06;;;25.30;42.43
75668;BME280;64266;48.798;44.756;2023-07-31T20:25:59;100954.84;;;25.37;42.10
75668;BME280;64266;48.798;44.756;2023-07-31T20:31:03;100959.78;;;25.34;42.72
75668;BME280;64266;48.798;44.756;2023-07-31T20:36:06;100954.91;;;25.23;43.31
75668;BME280;64266;48.798;44.756;2023-07-31T20:41:10;100959.03;;;25.20;43.92
75668;BME280;64266;48.798;44.756;2023-07-31T20:46:13;100934.63;;;24.98;44.91
75668;BME280;64266;48.798;44.756;2023-07-31T20:51:19;100941.28;;;24.92;44.58
75668;BME280;64266;48.798;44.756;2023-07-31T20:56:23;100943.50;;;24.90;44.67
75668;BME280;64266;48.798;44.756;2023-07-31T21:01:25;100924.66;;;24.71;44.43
75668;BME280;64266;48.798;44.756;2023-07-31T21:06:28;100955.69;;;24.79;44.75
75668;BME280;64266;48.798;44.756;2023-07-31T21:11:31;100955.09;;;24.68;46.10
75668;BME280;64266;48.798;44.756;2023-07-31T21:16:36;100945.81;;;24.61;46.02
75668;BME280;64266;48.798;44.756;2023-07-31T21:21:39;100938.78;;;24.46;45.52
75668;BME280;64266;48.798;44.756;2023-07-31T21:26:42;100940.81;;;24.41;44.98
75668;BME280;64266;48.798;44.756;2023-07-31T21:31:46;100962.91;;;24.48;45.16
75668;BME280;64266;48.798;44.756;2023-07-31T21:36:49;100967.13;;;24.40;45.05
75668;BME280;64266;48.798;44.756;2023-07-31T21:41:52;100955.72;;;24.30;44.51
75668;BME280;64266;48.798;44.756;2023-07-31T21:46:55;100965.06;;;24.23;45.22
75668;BME280;64266;48.798;44.756;2023-07-31T21:51:57;100944.69;;;24.12;44.89
75668;BME280;64266;48.798;44.756;2023-07-31T21:57:00;100942.28;;;24.11;45.17
75668;BME280;64266;48.798;44.756;2023-07-31T22:02:03;100935.63;;;24.03;45.14
75668;BME280;64266;48.798;44.756;2023-07-31T22:07:05;100966.06;;;24.14;45.13
75668;BME280;64266;48.798;44.756;2023-07-31T22:12:09;100948.19;;;23.99;45.11
75668;BME280;64266;48.798;44.756;2023-07-31T22:17:12;100935.66;;;23.90;44.89
75668;BME280;64266;48.798;44.756;2023-07-31T22:22:15;100950.69;;;23.96;45.51
75668;BME280;64266;48.798;44.756;2023-07-31T22:27:18;100961.75;;;23.99;46.17
75668;BME280;64266;48.798;44.756;2023-07-31T22:32:21;100946.47;;;23.76;45.70
75668;BME280;64266;48.798;44.756;2023-07-31T22:37:24;100955.69;;;23.75;45.93
75668;BME280;64266;48.798;44.756;2023-07-31T22:42:26;100951.88;;;23.76;45.96
75668;BME280;64266;48.798;44.756;2023-07-31T22:47:29;100958.72;;;23.73;45.85
75668;BME280;64266;48.798;44.756;2023-07-31T22:52:33;100962.31;;;23.69;45.46
75668;BME280;64266;48.798;44.756;2023-07-31T22:57:36;100950.56;;;23.60;45.36
75668;BME280;64266;48.798;44.756;2023-07-31T23:02:40;100944.75;;;23.53;45.76
75668;BME280;64266;48.798;44.756;2023-07-31T23:07:42;100951.53;;;23.50;45.66
75668;BME280;64266;48.798;44.756;2023-07-31T23:12:45;100949.16;;;23.49;45.64
75668;BME280;64266;48.798;44.756;2023-07-31T23:17:48;100940.38;;;23.38;45.67
75668;BME280;64266;48.798;44.756;2023-07-31T23:22:50;100947.72;;;23.38;45.84
75668;BME280;64266;48.798;44.756;2023-07-31T23:27:52;100938.72;;;23.23;46.17
75668;BME280;64266;48.798;44.756;2023-07-31T23:32:55;100943.53;;;23.27;46.30
75668;BME280;64266;48.798;44.756;2023-07-31T23:37:58;100929.78;;;23.09;45.95
75668;BME280;64266;48.798;44.756;2023-07-31T23:43:01;100923.66;;;23.04;45.55
75668;BME280;64266;48.798;44.756;2023-07-31T23:48:05;100943.09;;;23.06;45.61
75668;BME280;64266;48.798;44.756;2023-07-31T23:53:08;100954.78;;;23.01;45.76
75668;BME280;64266;48.798;44.756;2023-07-31T23:58:12;100925.22;;;22.91;47.41
